createdAt,value
2018-05-11T00:01:44.614Z,101843.09
2018-05-11T00:04:11.142Z,101851.46
2018-05-11T00:06:37.291Z,101847.50
2018-05-11T00:09:03.509Z,101847.98
2018-05-11T00:11:29.710Z,101842.69
2018-05-11T00:13:55.856Z,101843.13
2018-05-11T00:16:21.996Z,101842.28
2018-05-11T00:18:48.201Z,101840.52
2018-05-11T00:21:14.340Z,101840.08
2018-05-11T00:23:40.469Z,101837.03
2018-05-11T00:26:06.641Z,101836.59
2018-05-11T00:28:32.810Z,101833.98
2018-05-11T00:30:58.987Z,101831.38
2018-05-11T00:33:25.264Z,101834.46
2018-05-11T00:35:51.415Z,101835.78
2018-05-11T00:38:17.563Z,101841.06
2018-05-11T00:40:43.730Z,101843.27
2018-05-11T00:43:09.870Z,101855.16
2018-05-11T00:45:36.033Z,101862.23
2018-05-11T00:48:02.157Z,101871.03
2018-05-11T00:50:28.337Z,101870.59
2018-05-11T00:52:54.480Z,101870.15
2018-05-11T00:55:33.036Z,101868.86
2018-05-11T00:57:59.174Z,101870.22
2018-05-11T01:00:25.340Z,101882.07
2018-05-11T01:02:51.501Z,101886.91
2018-05-11T01:05:17.633Z,101886.50
2018-05-11T01:07:44.067Z,101893.10
2018-05-11T01:10:10.269Z,101892.70
2018-05-11T01:12:36.397Z,101899.27
2018-05-11T01:15:02.536Z,101894.89
2018-05-11T01:17:29.105Z,101897.13
2018-05-11T01:19:55.339Z,101899.80
2018-05-11T01:22:21.487Z,101902.85
2018-05-11T01:24:47.725Z,101901.13
2018-05-11T01:27:14.107Z,101901.13
2018-05-11T01:29:40.482Z,101905.55
2018-05-11T01:32:06.667Z,101913.92
2018-05-11T01:34:32.939Z,101917.00
2018-05-11T01:36:59.158Z,101926.72
2018-05-11T01:39:25.335Z,101920.99
2018-05-11T01:41:51.508Z,101924.52
2018-05-11T01:44:17.650Z,101930.67
2018-05-11T01:46:43.814Z,101938.22
2018-05-11T01:49:09.965Z,101937.75
2018-05-11T01:51:36.117Z,101939.95
2018-05-11T01:54:02.255Z,101940.42
2018-05-11T01:56:28.797Z,101942.21
2018-05-11T01:58:54.981Z,101946.61
2018-05-11T02:01:21.459Z,101945.77
2018-05-11T02:03:47.599Z,101949.72
2018-05-11T02:06:13.817Z,101948.44
2018-05-11T02:08:40.058Z,101947.55
2018-05-11T02:11:06.201Z,101951.95
2018-05-11T02:13:32.419Z,101950.70
2018-05-11T02:15:59.007Z,101946.30
2018-05-11T02:18:25.152Z,101953.33
2018-05-11T02:20:51.449Z,101953.33
2018-05-11T02:23:17.597Z,101950.72
2018-05-11T02:25:43.740Z,101955.16
2018-05-11T02:28:10.176Z,101958.67
2018-05-11T02:30:36.348Z,101959.58
2018-05-11T02:33:02.567Z,101966.66
2018-05-11T02:35:28.731Z,101965.77
2018-05-11T02:37:54.860Z,101969.30
2018-05-11T02:40:21.023Z,101968.45
2018-05-11T02:42:47.174Z,101976.80
2018-05-11T02:45:13.750Z,101973.31
2018-05-11T02:47:39.901Z,101975.52
2018-05-11T02:50:06.060Z,101972.91
2018-05-11T02:52:32.236Z,101983.91
2018-05-11T02:54:58.595Z,101981.70
2018-05-11T02:57:24.775Z,101986.13
2018-05-11T02:59:50.920Z,101981.77
2018-05-11T03:02:17.355Z,101986.16
2018-05-11T03:04:43.490Z,101987.92
2018-05-11T03:07:09.632Z,101992.32
2018-05-11T03:09:35.982Z,101988.83
2018-05-11T03:12:02.143Z,101992.78
2018-05-11T03:14:28.317Z,101990.62
2018-05-11T03:16:54.481Z,102002.49
2018-05-11T03:19:20.876Z,102002.53
2018-05-11T03:21:47.024Z,102007.34
2018-05-11T03:24:13.622Z,102017.02
2018-05-11T03:26:39.771Z,102018.37
2018-05-11T03:29:05.922Z,102023.20
2018-05-11T03:31:32.451Z,102025.84
2018-05-11T03:33:58.593Z,102025.84
2018-05-11T03:36:24.745Z,102029.39
2018-05-11T03:38:50.964Z,102028.51
2018-05-11T03:41:17.093Z,102034.67
2018-05-11T03:43:43.370Z,102036.43
2018-05-11T03:46:09.745Z,102035.14
2018-05-11T03:48:35.886Z,102040.42
2018-05-11T03:51:02.054Z,102039.53
2018-05-11T03:53:28.181Z,102044.81
2018-05-11T03:55:54.389Z,102052.30
2018-05-11T03:58:20.517Z,102054.50
2018-05-11T04:00:46.641Z,102056.26
2018-05-11T04:03:24.913Z,102055.81
2018-05-11T04:05:59.304Z,102066.35
2018-05-11T04:08:34.711Z,102063.27
2018-05-11T04:11:00.875Z,102071.60
2018-05-11T04:13:27.022Z,102064.56
2018-05-11T04:15:53.185Z,102065.88
2018-05-11T04:18:19.330Z,102064.97
2018-05-11T04:20:45.525Z,102071.14
2018-05-11T04:23:11.674Z,102073.75
2018-05-11T04:25:37.862Z,102080.34
2018-05-11T04:28:04.055Z,102081.23
2018-05-11T04:30:30.277Z,102080.31
2018-05-11T04:32:56.645Z,102081.17
2018-05-11T04:35:22.781Z,102083.38
2018-05-11T04:37:48.957Z,102087.77
2018-05-11T04:40:15.092Z,102089.95
2018-05-11T04:42:41.254Z,102087.75
2018-05-11T04:45:07.391Z,102091.23
2018-05-11T04:47:33.710Z,102093.00
2018-05-11T04:49:59.941Z,102093.85
2018-05-11T04:52:26.405Z,102099.98
2018-05-11T04:54:52.627Z,102107.91
2018-05-11T04:57:18.761Z,102116.23
2018-05-11T04:59:44.909Z,102121.11
2018-05-11T05:02:11.079Z,102119.80
2018-05-11T05:04:37.229Z,102117.16
2018-05-11T05:07:03.401Z,102115.39
2018-05-11T05:09:29.596Z,102122.84
2018-05-11T05:11:56.089Z,102120.64
2018-05-11T05:14:22.234Z,102120.20
2018-05-11T05:16:48.362Z,102122.44
2018-05-11T05:19:14.565Z,102124.16
2018-05-11T05:21:40.763Z,102128.59
2018-05-11T05:24:06.923Z,102131.70
2018-05-11T05:26:33.178Z,102131.70
2018-05-11T05:28:59.413Z,102126.00
2018-05-11T05:31:26.120Z,102127.77
2018-05-11T05:33:52.311Z,102129.53
2018-05-11T05:36:18.457Z,102129.52
2018-05-11T05:38:45.086Z,102131.23
2018-05-11T05:41:11.217Z,102127.66
2018-05-11T05:43:37.397Z,102130.69
2018-05-11T05:46:03.675Z,102134.16
2018-05-11T05:48:29.810Z,102136.77
2018-05-11T05:50:55.951Z,102137.59
2018-05-11T05:53:22.355Z,102143.30
2018-05-11T05:55:48.521Z,102140.24
2018-05-11T05:58:14.722Z,102140.66
2018-05-11T06:00:41.100Z,102140.62
2018-05-11T06:03:07.650Z,102139.28
2018-05-11T06:05:33.958Z,102144.95
2018-05-11T06:08:00.345Z,102142.25
2018-05-11T06:10:26.505Z,102151.03
2018-05-11T06:12:59.698Z,102154.97
2018-05-11T06:15:25.864Z,102151.44
2018-05-11T06:17:52.073Z,102147.84
2018-05-11T06:20:18.214Z,102154.86
2018-05-11T06:22:44.366Z,102152.58
2018-05-11T06:25:10.532Z,102158.25
2018-05-11T06:27:36.672Z,102159.95
2018-05-11T06:30:03.253Z,102160.86
2018-05-11T06:32:29.395Z,102163.91
2018-05-11T06:34:55.555Z,102165.27
2018-05-11T06:37:21.837Z,102165.23
2018-05-11T06:39:47.985Z,102170.05
2018-05-11T06:42:14.135Z,102168.65
2018-05-11T06:44:40.688Z,102158.91
2018-05-11T06:47:07.117Z,102160.12
2018-05-11T06:49:33.241Z,102162.67
2018-05-11T06:52:00.084Z,102161.68
2018-05-11T06:54:26.217Z,102160.72
2018-05-11T06:56:52.352Z,102167.23
2018-05-11T06:59:18.883Z,102153.08
2018-05-11T07:01:45.017Z,102149.55
2018-05-11T07:04:11.153Z,102155.72
2018-05-11T07:06:37.317Z,102160.16
2018-05-11T07:09:03.537Z,102155.34
2018-05-11T07:11:29.724Z,102163.24
2018-05-11T07:13:55.879Z,102158.84
2018-05-11T07:16:22.046Z,102157.04
2018-05-11T07:18:48.186Z,102153.08
2018-05-11T07:21:14.723Z,102160.01
2018-05-11T07:23:40.862Z,102159.01
2018-05-11T07:26:06.994Z,102153.19
2018-05-11T07:28:33.168Z,102152.19
2018-05-11T07:30:59.346Z,102144.95
2018-05-11T07:33:25.762Z,102150.62
2018-05-11T07:35:52.033Z,102145.27
2018-05-11T07:38:18.168Z,102145.30
2018-05-11T07:40:44.304Z,102141.80
2018-05-11T07:43:10.556Z,102138.31
2018-05-11T07:45:36.787Z,102134.81
2018-05-11T07:48:03.017Z,102139.66
2018-05-11T07:50:29.160Z,102135.34
2018-05-11T07:52:55.344Z,102135.34
2018-05-11T07:55:21.470Z,102134.03
2018-05-11T07:57:47.622Z,102130.91
2018-05-11T08:00:14.581Z,102133.61
2018-05-11T08:02:40.731Z,102132.70
2018-05-11T08:05:06.865Z,102130.91
2018-05-11T08:07:33.035Z,102134.37
2018-05-11T08:09:59.178Z,102133.91
2018-05-11T08:12:25.385Z,102127.70
2018-05-11T08:14:51.509Z,102121.47
2018-05-11T08:17:17.668Z,102117.43
2018-05-11T08:19:43.798Z,102112.58
2018-05-11T08:22:10.007Z,102112.58
2018-05-11T08:24:36.145Z,102109.02
2018-05-11T08:27:02.364Z,102111.64
2018-05-11T08:29:28.474Z,102110.78
2018-05-11T08:31:54.613Z,102112.52
2018-05-11T08:34:20.796Z,102113.80
2018-05-11T08:36:47.276Z,102111.13
2018-05-11T08:39:13.410Z,102115.88
2018-05-11T08:41:39.945Z,102112.77
2018-05-11T08:44:06.134Z,102105.27
2018-05-11T08:46:32.273Z,102109.67
2018-05-11T08:48:58.728Z,102104.39
2018-05-11T08:51:24.992Z,102107.09
2018-05-11T08:53:51.392Z,102106.66
2018-05-11T08:56:17.821Z,102110.12
2018-05-11T08:58:43.988Z,102117.64
2018-05-11T09:01:10.118Z,102120.29
2018-05-11T09:03:36.397Z,102111.81
2018-05-11T09:06:02.551Z,102107.41
2018-05-11T09:08:28.687Z,102101.64
2018-05-11T09:10:54.970Z,102106.87
2018-05-11T09:13:21.145Z,102095.81
2018-05-11T09:15:47.327Z,102096.66
2018-05-11T09:18:13.506Z,102097.09
2018-05-11T09:20:39.668Z,102098.45
2018-05-11T09:23:05.829Z,102106.32
2018-05-11T09:25:32.496Z,102097.84
2018-05-11T09:27:58.621Z,102096.48
2018-05-11T09:30:24.758Z,102096.38
2018-05-11T09:32:51.043Z,102098.08
2018-05-11T09:35:17.170Z,102100.18
2018-05-11T09:37:43.301Z,102098.34
2018-05-11T09:40:09.478Z,102093.39
2018-05-11T09:42:35.617Z,102101.77
2018-05-11T09:45:02.199Z,102096.00
2018-05-11T09:47:28.373Z,102098.98
2018-05-11T09:49:54.516Z,102094.91
2018-05-11T09:52:20.709Z,102102.70
2018-05-11T09:54:46.854Z,102098.25
2018-05-11T09:57:13.326Z,102106.16
2018-05-11T09:59:39.501Z,102111.86
2018-05-11T10:02:05.666Z,102111.31
2018-05-11T10:04:32.035Z,102116.36
2018-05-11T10:06:58.165Z,102115.29
2018-05-11T10:09:24.733Z,102112.05
2018-05-11T10:11:50.864Z,102103.08
2018-05-11T10:14:17.071Z,102105.53
2018-05-11T10:16:43.378Z,102108.42
2018-05-11T10:19:09.509Z,102108.67
2018-05-11T10:21:35.646Z,102111.58
2018-05-11T10:24:02.138Z,102113.19
2018-05-11T10:26:28.285Z,102117.05
2018-05-11T10:28:54.453Z,102116.56
2018-05-11T10:31:20.926Z,102117.48
2018-05-11T10:33:47.061Z,102115.72
2018-05-11T10:36:13.234Z,102117.41
2018-05-11T10:38:39.709Z,102111.51
2018-05-11T10:41:05.840Z,102115.32
2018-05-11T10:43:32.269Z,102122.22
2018-05-11T10:45:58.427Z,102115.83
2018-05-11T10:48:25.081Z,102114.83
2018-05-11T10:50:51.237Z,102115.10
2018-05-11T10:53:17.424Z,102114.98
2018-05-11T10:55:43.690Z,102111.45
2018-05-11T10:58:09.818Z,102110.11
2018-05-11T11:00:35.961Z,102106.66
2018-05-11T11:03:02.129Z,102115.55
2018-05-11T11:05:28.640Z,102107.19
2018-05-11T11:07:54.783Z,102111.64
2018-05-11T11:10:20.914Z,102110.24
2018-05-11T11:12:47.086Z,102109.71
2018-05-11T11:15:13.238Z,102107.82
2018-05-11T11:17:39.591Z,102110.91
2018-05-11T11:20:05.986Z,102104.64
2018-05-11T11:22:32.342Z,102102.30
2018-05-11T11:24:58.476Z,102093.34
2018-05-11T11:27:24.605Z,102097.23
2018-05-11T11:29:51.160Z,102104.84
2018-05-11T11:32:17.301Z,102095.66
2018-05-11T11:34:43.496Z,102098.52
2018-05-11T11:37:09.625Z,102106.73
2018-05-11T11:39:35.770Z,102104.70
2018-05-11T11:42:02.051Z,102099.78
2018-05-11T11:44:28.246Z,102102.89
2018-05-11T11:46:54.430Z,102099.30
2018-05-11T11:49:20.589Z,102097.87
2018-05-11T11:51:46.732Z,102099.03
2018-05-11T11:54:13.207Z,102101.45
2018-05-11T11:56:39.349Z,102098.12
2018-05-11T11:59:05.510Z,102102.90
2018-05-11T12:01:31.741Z,102096.17
2018-05-11T12:03:57.863Z,102101.88
2018-05-11T12:06:24.087Z,102092.19
2018-05-11T12:08:50.337Z,102090.50
2018-05-11T12:11:16.418Z,102098.83
2018-05-11T12:13:42.591Z,102093.81
2018-05-11T12:16:08.737Z,102090.97
2018-05-11T12:18:35.411Z,102091.80
2018-05-11T12:21:01.619Z,102092.95
2018-05-11T12:23:27.730Z,102087.03
2018-05-11T12:25:53.902Z,102085.55
2018-05-11T12:28:20.281Z,102082.94
2018-05-11T12:30:46.442Z,102079.47
2018-05-11T12:33:12.582Z,102077.84
2018-05-11T12:35:38.982Z,102079.37
2018-05-11T12:38:05.373Z,102077.73
2018-05-11T12:40:31.762Z,102074.33
2018-05-11T12:42:58.043Z,102078.86
2018-05-11T12:45:24.190Z,102082.39
2018-05-11T12:47:50.316Z,102075.56
2018-05-11T12:50:16.482Z,102068.20
2018-05-11T12:52:42.635Z,102070.60
2018-05-11T12:55:08.792Z,102064.11
2018-05-11T12:57:35.605Z,102055.94
2018-05-11T13:00:01.776Z,102057.31
2018-05-11T13:02:27.917Z,102053.92
2018-05-11T13:04:54.087Z,102051.37
2018-05-11T13:07:20.278Z,102058.94
2018-05-11T13:09:46.421Z,102055.50
2018-05-11T13:12:12.581Z,102056.08
2018-05-11T13:14:38.880Z,102053.42
2018-05-11T13:17:05.018Z,102052.53
2018-05-11T13:19:31.278Z,102052.44
2018-05-11T13:21:57.414Z,102049.84
2018-05-11T13:24:23.566Z,102047.42
2018-05-11T13:26:49.716Z,102047.28
2018-05-11T13:29:15.848Z,102052.40
2018-05-11T13:31:42.025Z,102047.34
2018-05-11T13:34:08.165Z,102047.59
2018-05-11T13:36:34.686Z,102046.98
2018-05-11T13:39:00.826Z,102055.16
2018-05-11T13:41:26.973Z,102049.20
2018-05-11T13:43:53.133Z,102043.58
2018-05-11T13:46:19.278Z,102049.47
2018-05-11T13:48:45.568Z,102046.82
2018-05-11T13:51:11.716Z,102049.52
2018-05-11T13:53:37.853Z,102048.20
2018-05-11T13:56:04.104Z,102046.77
2018-05-11T13:58:30.553Z,102046.59
2018-05-11T14:00:56.694Z,102034.88
2018-05-11T14:03:23.075Z,102035.53
2018-05-11T14:05:49.257Z,102030.81
2018-05-11T14:08:15.409Z,102033.48
2018-05-11T14:10:41.604Z,102030.89
2018-05-11T14:13:07.740Z,102025.02
2018-05-11T14:15:33.902Z,102022.09
2018-05-11T14:18:00.524Z,102025.07
2018-05-11T14:20:26.690Z,102024.35
2018-05-11T14:22:52.971Z,102022.53
2018-05-11T14:25:19.142Z,102023.22
2018-05-11T14:27:45.274Z,102017.88
2018-05-11T14:30:11.560Z,102023.66
2018-05-11T14:32:37.696Z,102015.92
2018-05-11T14:35:03.827Z,102012.62
2018-05-11T14:37:29.996Z,102011.16
2018-05-11T14:39:56.153Z,102017.36
2018-05-11T14:42:22.629Z,102016.95
2018-05-11T14:44:48.835Z,102013.03
2018-05-11T14:47:14.965Z,102009.34
2018-05-11T14:49:41.136Z,102010.69
2018-05-11T14:52:07.777Z,102008.84
2018-05-11T14:54:33.919Z,102009.34
2018-05-11T14:57:00.056Z,102006.61
2018-05-11T14:59:26.227Z,102003.84
2018-05-11T15:01:52.514Z,102002.87
2018-05-11T15:04:18.658Z,101998.12
2018-05-11T15:06:44.797Z,102003.80
2018-05-11T15:09:10.964Z,102000.44
2018-05-11T15:11:37.134Z,101995.85
2018-05-11T15:14:03.332Z,102000.11
2018-05-11T15:16:29.462Z,101994.52
2018-05-11T15:18:55.646Z,101993.71
2018-05-11T15:21:21.809Z,101987.84
2018-05-11T15:23:47.979Z,101988.84
2018-05-11T15:26:14.187Z,101985.39
2018-05-11T15:28:40.335Z,101990.53
2018-05-11T15:31:06.504Z,101989.14
2018-05-11T15:33:33.258Z,101985.09
2018-05-11T15:35:59.423Z,101976.15
2018-05-11T15:38:25.557Z,101978.95
2018-05-11T15:40:51.767Z,101981.91
2018-05-11T15:43:24.899Z,101977.75
2018-05-11T15:45:51.078Z,101969.37
2018-05-11T15:48:17.253Z,101976.11
2018-05-11T15:50:44.146Z,101976.27
2018-05-11T15:53:10.289Z,101978.64
2018-05-11T15:55:36.663Z,101976.48
2018-05-11T15:58:02.837Z,101969.98
2018-05-11T16:00:28.973Z,101963.05
2018-05-11T16:02:55.241Z,101958.00
2018-05-11T16:05:21.382Z,101953.22
2018-05-11T16:07:47.564Z,101951.33
2018-05-11T16:10:13.738Z,101938.77
2018-05-11T16:12:40.011Z,101944.14
2018-05-11T16:15:07.029Z,101940.09
2018-05-11T16:17:33.179Z,101940.17
2018-05-11T16:19:59.375Z,101938.51
2018-05-11T16:22:25.815Z,101922.64
2018-05-11T16:24:51.962Z,101923.53
2018-05-11T16:27:18.136Z,101931.79
2018-05-11T16:29:44.342Z,101937.03
2018-05-11T16:32:10.509Z,101932.10
2018-05-11T16:34:36.668Z,101925.63
2018-05-11T16:37:03.141Z,101927.56
2018-05-11T16:39:29.323Z,101928.45
2018-05-11T16:41:55.692Z,101932.89
2018-05-11T16:44:21.877Z,101928.57
2018-05-11T16:46:48.025Z,101923.84
2018-05-11T16:49:14.544Z,101928.72
2018-05-11T16:51:40.694Z,101933.48
2018-05-11T16:54:06.828Z,101926.37
2018-05-11T16:56:33.096Z,101928.11
2018-05-11T16:58:59.232Z,101926.41
2018-05-11T17:01:25.403Z,101924.63
2018-05-11T17:03:51.989Z,101925.89
2018-05-11T17:06:18.134Z,101923.30
2018-05-11T17:08:44.269Z,101921.39
2018-05-11T17:11:10.441Z,101921.33
2018-05-11T17:13:36.597Z,101922.47
2018-05-11T17:16:03.084Z,101919.42
2018-05-11T17:18:29.258Z,101925.88
2018-05-11T17:20:55.416Z,101930.84
2018-05-11T17:23:21.920Z,101924.86
2018-05-11T17:25:48.048Z,101921.63
2018-05-11T17:28:14.190Z,101920.72
2018-05-11T17:30:40.358Z,101922.26
2018-05-11T17:33:06.506Z,101921.22
2018-05-11T17:35:32.763Z,101920.95
2018-05-11T17:37:58.906Z,101927.31
2018-05-11T17:40:25.045Z,101923.44
2018-05-11T17:42:51.209Z,101919.21
2018-05-11T17:45:17.397Z,101921.32
2018-05-11T17:47:43.571Z,101920.25
2018-05-11T17:50:09.720Z,101919.92
2018-05-11T17:52:35.893Z,101915.98
2018-05-11T17:55:02.039Z,101917.91
2018-05-11T17:57:28.611Z,101917.27
2018-05-11T17:59:54.745Z,101919.34
2018-05-11T18:04:53.952Z,101914.48
2018-05-11T18:07:20.438Z,101908.19
2018-05-11T18:09:46.582Z,101919.25
2018-05-11T18:12:12.741Z,101908.33
2018-05-11T18:14:38.925Z,101912.38
2018-05-11T18:17:05.106Z,101913.73
2018-05-11T18:19:31.392Z,101910.16
2018-05-11T18:21:57.565Z,101907.94
2018-05-11T18:24:23.716Z,101905.18
2018-05-11T18:26:49.931Z,101905.00
2018-05-11T18:29:16.381Z,101912.01
2018-05-11T18:31:42.559Z,101907.55
2018-05-11T18:34:08.742Z,101906.16
2018-05-11T18:36:34.906Z,101910.55
2018-05-11T18:39:01.045Z,101916.21
2018-05-11T18:41:27.267Z,101921.06
2018-05-11T18:43:53.405Z,101909.16
2018-05-11T18:46:19.810Z,101917.24
2018-05-11T18:48:45.982Z,101905.75
2018-05-11T18:51:12.121Z,101912.34
2018-05-11T18:53:38.632Z,101910.91
2018-05-11T18:56:04.449Z,101911.72
2018-05-11T18:58:30.722Z,101913.32
2018-05-11T19:00:56.865Z,101912.30
2018-05-11T19:03:22.996Z,101918.22
2018-05-11T19:05:49.198Z,101922.02
2018-05-11T19:08:15.336Z,101928.92
2018-05-11T19:10:41.479Z,101920.64
2018-05-11T19:13:07.671Z,101932.34
2018-05-11T19:15:33.822Z,101927.68
2018-05-11T19:17:59.989Z,101934.48
2018-05-11T19:20:26.223Z,101938.70
2018-05-11T19:22:52.585Z,101938.47
2018-05-11T19:25:19.423Z,101946.23
2018-05-11T19:27:45.615Z,101950.86
2018-05-11T19:30:11.755Z,101957.24
2018-05-11T19:32:37.924Z,101950.80
2018-05-11T19:35:04.107Z,101949.66
2018-05-11T19:37:30.395Z,101953.88
2018-05-11T19:39:56.548Z,101955.36
2018-05-11T19:42:22.749Z,101952.95
2018-05-11T19:44:48.885Z,101962.02
2018-05-11T19:47:15.252Z,101960.48
2018-05-11T19:49:41.691Z,101962.88
2018-05-11T19:52:07.838Z,101958.73
2018-05-11T19:54:33.986Z,101966.86
2018-05-11T19:57:00.161Z,101962.22
2018-05-11T19:59:33.345Z,101969.88
2018-05-11T20:01:59.522Z,101972.30
2018-05-11T20:04:25.662Z,101971.15
2018-05-11T20:06:51.961Z,101974.78
2018-05-11T20:09:18.110Z,101970.09
2018-05-11T20:11:44.285Z,101971.55
2018-05-11T20:14:10.455Z,101966.38
2018-05-11T20:16:36.617Z,101973.66
2018-05-11T20:19:02.757Z,101970.65
2018-05-11T20:21:28.948Z,101969.48
2018-05-11T20:23:55.371Z,101970.05
2018-05-11T20:26:21.574Z,101971.06
2018-05-11T20:28:47.805Z,101971.63
2018-05-11T20:31:13.953Z,101963.33
2018-05-11T20:33:40.510Z,101967.45
2018-05-11T20:36:06.880Z,101962.69
2018-05-11T20:38:33.005Z,101961.88
2018-05-11T20:40:59.161Z,101954.06
2018-05-11T20:43:25.332Z,101959.03
2018-05-11T20:45:51.492Z,101963.97
2018-05-11T20:48:18.102Z,101961.84
2018-05-11T20:50:44.271Z,101961.45
2018-05-11T20:53:10.395Z,101959.80
2018-05-11T20:55:37.217Z,101959.44
2018-05-11T20:58:03.348Z,101956.42
2018-05-11T21:00:29.474Z,101959.59
2018-05-11T21:02:55.686Z,101953.50
2018-05-11T21:05:21.951Z,101954.89
2018-05-11T21:07:48.098Z,101960.31
2018-05-11T21:10:14.234Z,101963.47
2018-05-11T21:12:40.653Z,101960.02
2018-05-11T21:15:06.795Z,101963.15
2018-05-11T21:17:32.953Z,101967.59
2018-05-11T21:19:59.084Z,101966.79
2018-05-11T21:22:25.295Z,101963.78
2018-05-11T21:24:51.565Z,101975.28
2018-05-11T21:27:17.788Z,101979.29
2018-05-11T21:29:43.878Z,101979.77
2018-05-11T21:32:10.161Z,101976.31
2018-05-11T21:34:36.302Z,101978.12
2018-05-11T21:37:02.477Z,101975.50
2018-05-11T21:39:28.674Z,101981.72
2018-05-11T21:41:54.814Z,101974.73
2018-05-11T21:44:21.293Z,101982.27
2018-05-11T21:46:47.445Z,101979.66
2018-05-11T21:49:13.992Z,101976.61
2018-05-11T21:51:40.133Z,101973.12
2018-05-11T21:54:06.613Z,101971.87
2018-05-11T21:56:32.774Z,101978.95
2018-05-11T21:58:58.935Z,101968.82
2018-05-11T22:01:25.205Z,101971.53
2018-05-11T22:03:51.297Z,101973.74
2018-05-11T22:06:17.460Z,101976.42
2018-05-11T22:08:43.633Z,101985.28
2018-05-11T22:11:09.765Z,101971.20
2018-05-11T22:13:36.002Z,101979.17
2018-05-11T22:16:02.099Z,101980.53
2018-05-11T22:18:28.261Z,101986.73
2018-05-11T22:20:54.435Z,101988.50
2018-05-11T22:23:20.571Z,101983.25
2018-05-11T22:25:46.778Z,101984.17
2018-05-11T22:28:12.904Z,101984.17
2018-05-11T22:30:39.448Z,101980.71
2018-05-11T22:33:05.587Z,101977.66
2018-05-11T22:35:31.727Z,101983.83
2018-05-11T22:37:58.341Z,101978.11
2018-05-11T22:40:24.489Z,101980.81
2018-05-11T22:42:50.636Z,101982.61
2018-05-11T22:45:16.802Z,101979.53
2018-05-11T22:47:42.941Z,101975.16
2018-05-11T22:50:09.217Z,101969.46
2018-05-11T22:52:35.352Z,101961.56
2018-05-11T22:55:01.800Z,101962.00
2018-05-11T22:57:27.986Z,101958.52
2018-05-11T22:59:54.117Z,101955.50
2018-05-11T23:02:20.258Z,101956.38
2018-05-11T23:04:46.545Z,101955.53
2018-05-11T23:07:12.678Z,101955.53
2018-05-11T23:09:38.831Z,101952.48
2018-05-11T23:12:04.999Z,101947.23
2018-05-11T23:14:31.153Z,101951.64
2018-05-11T23:16:57.320Z,101945.94
2018-05-11T23:19:23.458Z,101941.53
2018-05-11T23:21:49.778Z,101939.80
2018-05-11T23:24:15.925Z,101937.61
2018-05-11T23:26:42.176Z,101935.88
2018-05-11T23:29:08.322Z,101927.98
2018-05-11T23:31:34.846Z,101934.59
2018-05-11T23:34:00.986Z,101920.52
2018-05-11T23:36:27.170Z,101928.93
2018-05-11T23:38:53.345Z,101926.77
2018-05-11T23:41:19.494Z,101917.51
2018-05-11T23:43:45.653Z,101916.22
2018-05-11T23:46:11.793Z,101918.42
2018-05-11T23:48:37.987Z,101906.12
2018-05-11T23:51:04.160Z,101906.16
2018-05-11T23:53:30.330Z,101907.52
2018-05-11T23:55:56.468Z,101907.95
2018-05-11T23:58:22.626Z,101901.83
